createdAt,value
2018-09-13T00:00:45.953Z,20.39
2018-09-13T00:01:46.653Z,20.4
2018-09-13T00:02:47.071Z,20.39
2018-09-13T00:03:47.512Z,20.39
2018-09-13T00:04:48.199Z,20.26
2018-09-13T00:05:49.320Z,20.39
2018-09-13T00:06:49.173Z,20.32
2018-09-13T00:07:49.442Z,20.26
2018-09-13T00:08:49.860Z,20.24
2018-09-13T00:09:50.554Z,20.27
2018-09-13T00:10:50.694Z,20.26
2018-09-13T00:11:51.110Z,20.32
2018-09-13T00:12:51.250Z,20.22
2018-09-13T00:13:51.664Z,20.17
2018-09-13T00:14:52.357Z,20.14
2018-09-13T00:15:52.775Z,20.1
2018-09-13T00:16:52.914Z,19.87
2018-09-13T00:17:53.901Z,19.84
2018-09-13T00:18:54.317Z,19.85
2018-09-13T00:19:54.490Z,19.77
2018-09-13T00:20:55.181Z,19.77
2018-09-13T00:21:55.877Z,19.74
2018-09-13T00:22:56.575Z,19.92
2018-09-13T00:23:56.992Z,19.9
2018-09-13T00:24:57.132Z,19.87
2018-09-13T00:25:57.826Z,19.79
2018-09-13T00:26:58.523Z,19.84
2018-09-13T00:27:58.512Z,19.85
2018-09-13T00:28:58.929Z,19.79
2018-09-13T00:29:59.068Z,19.78
2018-09-13T00:30:59.207Z,19.84
2018-09-13T00:31:59.348Z,19.85
2018-09-13T00:33:00.048Z,19.87
2018-09-13T00:34:00.187Z,19.81
2018-09-13T00:35:00.603Z,19.78
2018-09-13T00:36:01.305Z,19.75
2018-09-13T00:37:01.726Z,19.85
2018-09-13T00:38:02.002Z,19.92
2018-09-13T00:39:02.143Z,19.84
2018-09-13T00:40:02.835Z,19.67
2018-09-13T00:41:03.526Z,19.74
2018-09-13T00:42:04.220Z,19.85
2018-09-13T00:43:04.639Z,19.85
2018-09-13T00:44:05.058Z,19.78
2018-09-13T00:45:06.054Z,19.74
2018-09-13T00:46:06.472Z,19.64
2018-09-13T00:47:06.891Z,19.59
2018-09-13T00:48:07.438Z,19.55
2018-09-13T00:49:08.135Z,19.57
2018-09-13T00:50:08.269Z,19.63
2018-09-13T00:52:08.421Z,19.64
2018-09-13T00:53:08.561Z,19.66
2018-09-13T00:54:09.251Z,19.63
2018-09-13T00:55:09.953Z,19.6
2018-09-13T00:56:10.646Z,19.63
2018-09-13T00:57:11.339Z,19.56
2018-09-13T00:58:11.333Z,19.53
2018-09-13T00:59:11.744Z,19.48
2018-09-13T01:00:12.161Z,19.48
2018-09-13T01:01:12.853Z,19.48
2018-09-13T01:02:12.993Z,19.55
2018-09-13T01:03:13.687Z,19.38
2018-09-13T01:04:13.824Z,19.35
2018-09-13T01:05:14.242Z,19.26
2018-09-13T01:06:14.383Z,19.22
2018-09-13T01:07:14.795Z,19.2
2018-09-13T01:08:15.060Z,19.17
2018-09-13T01:09:15.476Z,19.11
2018-09-13T01:10:16.169Z,19.2
2018-09-13T01:11:16.589Z,19.15
2018-09-13T01:12:16.725Z,19.01
2018-09-13T01:13:17.139Z,19.11
2018-09-13T01:14:17.277Z,19.22
2018-09-13T01:15:17.973Z,19.19
2018-09-13T01:16:18.388Z,19.17
2018-09-13T01:17:19.086Z,19.19
2018-09-13T01:18:19.073Z,19.19
2018-09-13T01:19:19.768Z,19.08
2018-09-13T01:20:20.183Z,19.08
2018-09-13T01:21:20.601Z,19.19
2018-09-13T01:22:21.016Z,19.08
2018-09-13T01:23:21.431Z,19.17
2018-09-13T01:24:21.846Z,19.24
2018-09-13T01:25:21.988Z,19.27
2018-09-13T01:26:22.960Z,19.11
2018-09-13T01:27:23.097Z,19.11
2018-09-13T01:28:23.366Z,19.22
2018-09-13T01:29:23.784Z,19.24
2018-09-13T01:30:24.199Z,19.26
2018-09-13T01:31:24.338Z,19.29
2018-09-13T01:32:24.752Z,19.37
2018-09-13T01:33:25.170Z,19.38
2018-09-13T01:34:25.311Z,19.42
2018-09-13T01:35:25.724Z,19.47
2018-09-13T01:36:26.139Z,19.41
2018-09-13T01:37:26.556Z,19.48
2018-09-13T01:38:27.548Z,19.47
2018-09-13T01:39:27.686Z,19.47
2018-09-13T01:40:27.824Z,19.49
2018-09-13T01:41:28.240Z,19.56
2018-09-13T01:42:29.207Z,19.53
2018-09-13T01:43:29.625Z,19.47
2018-09-13T01:44:30.041Z,19.52
2018-09-13T01:45:30.456Z,19.42
2018-09-13T01:46:30.596Z,19.48
2018-09-13T01:47:31.011Z,19.45
2018-09-13T01:48:31.720Z,19.49
2018-09-13T01:49:31.857Z,19.53
2018-09-13T01:50:32.274Z,19.48
2018-09-13T01:51:32.692Z,19.55
2018-09-13T01:52:33.110Z,19.49
2018-09-13T01:53:34.079Z,19.63
2018-09-13T01:54:34.496Z,19.62
2018-09-13T01:55:34.909Z,19.62
2018-09-13T01:56:35.047Z,19.64
2018-09-13T01:57:35.743Z,19.62
2018-09-13T01:58:35.727Z,19.63
2018-09-13T01:59:35.864Z,19.56
2018-09-13T02:00:36.277Z,19.55
2018-09-13T02:01:36.691Z,19.48
2018-09-13T02:02:36.829Z,19.48
2018-09-13T02:03:36.966Z,19.38
2018-09-13T02:04:37.105Z,19.45
2018-09-13T02:05:37.520Z,19.34
2018-09-13T02:06:38.495Z,19.37
2018-09-13T02:07:38.629Z,19.34
2018-09-13T02:08:39.455Z,19.35
2018-09-13T02:09:40.151Z,19.23
2018-09-13T02:10:40.567Z,19.26
2018-09-13T02:11:41.260Z,19.22
2018-09-13T02:12:41.680Z,19.19
2018-09-13T02:13:42.091Z,19.12
2018-09-13T02:14:42.229Z,19.15
2018-09-13T02:15:42.921Z,19.11
2018-09-13T02:16:43.337Z,19.12
2018-09-13T02:17:43.754Z,19.07
2018-09-13T02:18:44.021Z,19.08
2018-09-13T02:19:44.438Z,19.11
2018-09-13T02:20:44.856Z,19.11
2018-09-13T02:21:45.271Z,19.07
2018-09-13T02:22:45.408Z,19.01
2018-09-13T02:23:45.824Z,19.04
2018-09-13T02:24:46.239Z,18.91
2018-09-13T02:25:46.934Z,18.92
2018-09-13T02:26:47.070Z,18.91
2018-09-13T02:27:47.485Z,19
2018-09-13T02:28:48.474Z,18.89
2018-09-13T02:29:48.613Z,18.92
2018-09-13T02:30:49.304Z,18.91
2018-09-13T02:31:49.996Z,18.76
2018-09-13T02:32:50.132Z,18.68
2018-09-13T02:33:51.103Z,18.81
2018-09-13T02:34:51.805Z,18.76
2018-09-13T02:35:52.778Z,18.78
2018-09-13T02:36:54.948Z,18.68
2018-09-13T02:39:54.841Z,18.68
2018-09-13T02:40:55.715Z,18.76
2018-09-13T02:41:56.127Z,18.79
2018-09-13T02:42:56.541Z,18.81
2018-09-13T02:43:56.679Z,18.76
2018-09-13T02:44:58.818Z,18.78
2018-09-13T02:45:57.234Z,18.67
2018-09-13T02:46:58.486Z,18.7
2018-09-13T02:47:58.184Z,18.63
2018-09-13T02:48:59.555Z,18.71
2018-09-13T02:49:59.557Z,18.71
2018-09-13T02:51:00.534Z,18.83
2018-09-13T02:52:00.233Z,18.79
2018-09-13T02:53:00.925Z,18.79
2018-09-13T02:54:00.906Z,18.74
2018-09-13T02:55:01.887Z,18.78
2018-09-13T02:56:02.576Z,18.89
2018-09-13T02:57:02.718Z,18.74
2018-09-13T02:58:02.856Z,18.83
2018-09-13T02:59:03.845Z,18.89
2018-09-13T03:00:03.980Z,18.88
2018-09-13T03:01:04.120Z,19.04
2018-09-13T03:02:04.532Z,18.98
2018-09-13T03:03:05.226Z,18.97
2018-09-13T03:04:05.640Z,19.05
2018-09-13T03:05:06.055Z,19.09
2018-09-13T03:06:06.470Z,19.07
2018-09-13T03:07:06.888Z,19.08
2018-09-13T03:08:07.433Z,19.05
2018-09-13T03:09:08.270Z,19.15
2018-09-13T03:10:08.689Z,19.17
2018-09-13T03:11:09.378Z,19.24
2018-09-13T03:12:09.796Z,19.23
2018-09-13T03:13:10.220Z,19.24
2018-09-13T03:14:10.635Z,19.26
2018-09-13T03:15:11.057Z,19.27
2018-09-13T03:16:11.357Z,19.2
2018-09-13T03:17:11.772Z,19.3
2018-09-13T03:18:12.188Z,19.27
2018-09-13T03:19:13.178Z,19.38
2018-09-13T03:20:13.869Z,19.41
2018-09-13T03:21:14.286Z,19.48
2018-09-13T03:22:14.708Z,19.55
2018-09-13T03:23:15.401Z,19.48
2018-09-13T03:24:15.819Z,19.49
2018-09-13T03:25:16.248Z,19.56
2018-09-13T03:26:16.679Z,19.52
2018-09-13T03:27:17.377Z,19.53
2018-09-13T03:28:18.068Z,19.53
2018-09-13T03:29:19.062Z,19.6
2018-09-13T03:30:20.035Z,19.64
2018-09-13T03:31:21.005Z,19.67
2018-09-13T03:32:21.989Z,19.6
2018-09-13T03:33:22.687Z,19.63
2018-09-13T03:34:23.100Z,19.67
2018-09-13T03:35:23.795Z,19.75
2018-09-13T03:36:23.934Z,19.78
2018-09-13T03:37:24.353Z,19.75
2018-09-13T03:38:25.047Z,19.78
2018-09-13T03:39:25.881Z,19.72
2018-09-13T03:40:26.020Z,19.64
2018-09-13T03:41:26.437Z,19.67
2018-09-13T03:42:26.854Z,19.75
2018-09-13T03:43:27.273Z,19.62
2018-09-13T03:44:27.689Z,19.55
2018-09-13T03:45:28.104Z,19.48
2018-09-13T03:46:28.799Z,19.42
2018-09-13T03:47:28.939Z,19.29
2018-09-13T03:48:29.912Z,19.2
2018-09-13T03:49:30.460Z,19.11
2018-09-13T03:50:31.149Z,19.16
2018-09-13T03:51:32.127Z,19.11
2018-09-13T03:52:32.266Z,18.96
2018-09-13T03:53:33.248Z,18.96
2018-09-13T03:54:33.952Z,18.88
2018-09-13T03:55:33.646Z,18.89
2018-09-13T03:56:34.615Z,18.86
2018-09-13T03:57:35.031Z,18.91
2018-09-13T03:58:35.735Z,18.94
2018-09-13T03:59:36.724Z,18.94
2018-09-13T04:00:37.139Z,19.01
2018-09-13T04:01:37.863Z,19.11
2018-09-13T04:02:38.828Z,19.04
2018-09-13T04:03:39.820Z,19.07
2018-09-13T04:04:40.238Z,19.07
2018-09-13T04:05:40.650Z,19.19
2018-09-13T04:06:41.344Z,19.17
2018-09-13T04:07:41.759Z,19.07
2018-09-13T04:08:42.197Z,19.11
2018-09-13T04:09:42.185Z,19.09
2018-09-13T04:10:42.323Z,19.12
2018-09-13T04:11:43.020Z,19.07
2018-09-13T04:12:42.716Z,19.09
2018-09-13T04:13:42.851Z,19.08
2018-09-13T04:14:42.990Z,18.94
2018-09-13T04:15:43.410Z,18.85
2018-09-13T04:16:43.826Z,18.94
2018-09-13T04:17:44.522Z,18.78
2018-09-13T04:18:44.902Z,18.82
2018-09-13T04:19:45.193Z,18.7
2018-09-13T04:20:45.906Z,18.68
2018-09-13T04:21:46.320Z,18.6
2018-09-13T04:22:47.676Z,18.6
2018-09-13T04:23:47.563Z,18.53
2018-09-13T04:24:48.257Z,18.46
2018-09-13T04:25:48.675Z,18.49
2018-09-13T04:26:49.096Z,18.42
2018-09-13T04:27:50.068Z,18.31
2018-09-13T04:28:50.759Z,18.27
2018-09-13T04:29:52.030Z,18.33
2018-09-13T04:30:52.441Z,18.31
2018-09-13T04:31:52.577Z,18.23
2018-09-13T04:32:53.386Z,18.26
2018-09-13T04:33:53.083Z,18.27
2018-09-13T04:34:53.218Z,18.27
2018-09-13T04:35:53.496Z,18.24
2018-09-13T04:36:54.417Z,18.16
2018-09-13T04:37:54.833Z,18.18
2018-09-13T04:38:54.971Z,18.24
2018-09-13T04:39:55.515Z,18.15
2018-09-13T04:40:55.931Z,18.19
2018-09-13T04:41:56.345Z,18.13
2018-09-13T04:42:56.485Z,18.09
2018-09-13T04:43:57.455Z,18.08
2018-09-13T04:44:57.872Z,17.95
2018-09-13T04:45:58.296Z,18
2018-09-13T04:46:59.265Z,17.91
2018-09-13T04:47:59.682Z,18.02
2018-09-13T04:48:59.851Z,18.03
2018-09-13T04:49:59.847Z,18.02
2018-09-13T04:51:00.262Z,17.98
2018-09-13T04:52:00.674Z,17.93
2018-09-13T04:53:00.814Z,17.98
2018-09-13T04:54:01.230Z,17.97
2018-09-13T04:55:01.675Z,18.08
2018-09-13T04:56:02.345Z,18.03
2018-09-13T04:57:02.481Z,18.16
2018-09-13T04:58:02.627Z,18.11
2018-09-13T04:59:03.040Z,18.16
2018-09-13T05:00:04.029Z,18.13
2018-09-13T05:01:04.444Z,18.19
2018-09-13T05:02:04.583Z,18.3
2018-09-13T05:03:05.283Z,18.42
2018-09-13T05:04:06.269Z,18.46
2018-09-13T05:05:06.960Z,18.55
2018-09-13T05:06:07.659Z,18.61
2018-09-13T05:07:07.796Z,18.58
2018-09-13T05:08:07.934Z,18.68
2018-09-13T05:09:08.076Z,18.71
2018-09-13T05:10:09.070Z,18.61
2018-09-13T05:11:09.763Z,18.68
2018-09-13T05:12:10.463Z,18.67
2018-09-13T05:13:10.598Z,18.67
2018-09-13T05:14:11.018Z,18.64
2018-09-13T05:15:11.715Z,18.58
2018-09-13T05:16:12.135Z,18.53
2018-09-13T05:17:12.557Z,18.52
2018-09-13T05:18:12.975Z,18.55
2018-09-13T05:19:13.394Z,18.49
2018-09-13T05:20:13.658Z,18.39
2018-09-13T05:21:14.355Z,18.41
2018-09-13T05:22:14.774Z,18.42
2018-09-13T05:23:15.472Z,18.45
2018-09-13T05:24:16.262Z,18.33
2018-09-13T05:25:15.739Z,18.37
2018-09-13T05:26:16.155Z,18.39
2018-09-13T05:27:16.571Z,18.36
2018-09-13T05:28:16.990Z,18.27
2018-09-13T05:29:17.132Z,18.23
2018-09-13T05:30:18.127Z,18.28
2018-09-13T05:31:18.546Z,18.36
2018-09-13T05:32:18.967Z,18.43
2018-09-13T05:33:19.108Z,18.24
2018-09-13T05:34:20.096Z,18.27
2018-09-13T05:35:20.515Z,18.26
2018-09-13T05:36:20.655Z,18.41
2018-09-13T05:37:21.352Z,18.42
2018-09-13T05:38:22.051Z,18.48
2018-09-13T05:39:22.753Z,18.42
2018-09-13T05:40:23.857Z,18.49
2018-09-13T05:41:24.552Z,18.58
2018-09-13T05:42:24.973Z,18.63
2018-09-13T05:43:25.390Z,18.55
2018-09-13T05:44:25.535Z,18.68
2018-09-13T05:45:26.262Z,18.73
2018-09-13T05:46:26.961Z,18.81
2018-09-13T05:47:27.933Z,18.73
2018-09-13T05:48:28.075Z,18.73
2018-09-13T05:49:28.507Z,18.86
2018-09-13T05:50:29.326Z,18.71
2018-09-13T05:51:30.038Z,18.76
2018-09-13T05:52:30.740Z,18.91
2018-09-13T05:53:31.188Z,18.91
2018-09-13T05:54:31.330Z,18.96
2018-09-13T05:55:31.898Z,19.08
2018-09-13T05:56:32.199Z,19.09
2018-09-13T05:57:33.136Z,19.11
2018-09-13T05:58:34.061Z,19.16
2018-09-13T05:59:33.828Z,19.12
2018-09-13T06:00:33.642Z,19.07
2018-09-13T06:01:34.118Z,19.09
2018-09-13T06:02:34.352Z,19.15
2018-09-13T06:03:35.044Z,19.2
2018-09-13T06:04:35.446Z,19.3
2018-09-13T06:05:36.290Z,19.38
2018-09-13T06:06:36.778Z,19.38
2018-09-13T06:07:36.532Z,19.24
2018-09-13T06:08:37.250Z,19.27
2018-09-13T06:09:38.361Z,19.49
2018-09-13T06:10:38.201Z,19.56
2018-09-13T06:11:39.246Z,19.72
2018-09-13T06:12:39.996Z,19.84
2018-09-13T06:13:40.730Z,20.15
2018-09-13T06:14:41.151Z,20.39
2018-09-13T06:15:41.064Z,20.6
2018-09-13T06:16:41.739Z,21.04
2018-09-13T06:17:43.190Z,21.37
2018-09-13T06:18:43.181Z,21.63
2018-09-13T06:19:43.691Z,21.91
2018-09-13T06:20:43.836Z,22.22
2018-09-13T06:21:44.341Z,22.59
2018-09-13T06:22:44.778Z,22.93
2018-09-13T06:23:45.583Z,23.33
2018-09-13T06:24:46.247Z,23.66
2018-09-13T06:25:46.430Z,24
2018-09-13T06:26:47.615Z,24.31
2018-09-13T06:27:47.563Z,24.51
2018-09-13T06:28:48.051Z,24.78
2018-09-13T06:29:48.230Z,25.01
2018-09-13T06:30:48.632Z,24.86
2018-09-13T06:31:49.138Z,24.56
2018-09-13T06:32:49.909Z,24.28
2018-09-13T06:33:50.433Z,24.22
2018-09-13T06:34:50.935Z,24.26
2018-09-13T06:35:51.651Z,24.06
2018-09-13T06:36:51.951Z,24.07
2018-09-13T06:37:52.312Z,24.13
2018-09-13T06:38:52.743Z,23.86
2018-09-13T06:39:53.447Z,23.85
2018-09-13T06:40:54.739Z,23.71
2018-09-13T06:41:55.441Z,23.47
2018-09-13T06:42:56.426Z,23.28
2018-09-13T06:43:56.569Z,22.96
2018-09-13T06:44:57.270Z,22.73
2018-09-13T06:45:57.979Z,22.59
2018-09-13T06:46:58.124Z,22.52
2018-09-13T06:47:58.549Z,22.43
2018-09-13T06:48:58.973Z,22.3
2018-09-13T06:49:59.396Z,22.38
2018-09-13T06:50:59.394Z,22.3
2018-09-13T06:51:59.818Z,22.21
2018-09-13T06:53:00.244Z,22.22
2018-09-13T06:54:01.037Z,22.19
2018-09-13T06:55:00.799Z,22.16
2018-09-13T06:56:01.501Z,22.03
2018-09-13T06:57:02.208Z,21.96
2018-09-13T06:58:02.358Z,21.94
2018-09-13T06:59:03.104Z,21.83
2018-09-13T07:00:03.638Z,21.85
2018-09-13T07:01:03.634Z,21.75
2018-09-13T07:02:04.059Z,21.81
2018-09-13T07:03:04.199Z,21.75
2018-09-13T07:04:04.902Z,21.65
2018-09-13T07:05:05.327Z,21.7
2018-09-13T07:06:05.476Z,21.59
2018-09-13T07:07:05.900Z,21.66
2018-09-13T07:08:06.329Z,21.58
2018-09-13T07:09:07.135Z,21.59
2018-09-13T07:10:07.637Z,21.54
2018-09-13T07:11:08.637Z,21.59
2018-09-13T07:12:09.205Z,21.69
2018-09-13T07:13:09.797Z,21.66
2018-09-13T07:14:09.894Z,21.59
2018-09-13T07:15:10.594Z,21.51
2018-09-13T07:16:10.740Z,21.41
2018-09-13T07:17:11.163Z,21.35
2018-09-13T07:18:11.613Z,21.38
2018-09-13T07:19:12.036Z,21.33
2018-09-13T07:20:12.735Z,21.35
2018-09-13T07:21:13.287Z,21.33
2018-09-13T07:22:13.986Z,21.35
2018-09-13T07:23:14.413Z,21.4
2018-09-13T07:24:15.109Z,21.33
2018-09-13T07:25:15.533Z,21.38
2018-09-13T07:26:15.678Z,21.38
2018-09-13T07:27:16.103Z,21.41
2018-09-13T07:28:16.526Z,21.35
2018-09-13T07:29:17.510Z,21.38
2018-09-13T07:30:17.658Z,21.44
2018-09-13T07:31:18.342Z,21.4
2018-09-13T07:32:19.044Z,21.4
2018-09-13T07:33:20.023Z,21.35
2018-09-13T07:34:20.321Z,21.37
2018-09-13T07:35:20.814Z,21.29
2018-09-13T07:36:22.994Z,21.3
2018-09-13T07:37:22.009Z,21.28
2018-09-13T07:38:22.759Z,21.3
2018-09-13T07:39:23.064Z,21.4
2018-09-13T07:40:22.893Z,21.43
2018-09-13T07:41:22.773Z,21.38
2018-09-13T07:42:23.752Z,21.44
2018-09-13T07:43:23.712Z,21.4
2018-09-13T07:44:23.660Z,21.44
2018-09-13T07:45:24.283Z,21.44
2018-09-13T07:46:24.998Z,21.5
2018-09-13T07:47:26.228Z,21.51
2018-09-13T07:48:26.408Z,21.62
2018-09-13T07:49:27.512Z,21.62
2018-09-13T07:50:27.608Z,21.41
2018-09-13T07:51:28.974Z,21.4
2018-09-13T07:52:29.357Z,21.45
2018-09-13T07:53:29.730Z,21.47
2018-09-13T07:54:30.251Z,21.65
2018-09-13T07:55:30.672Z,21.63
2018-09-13T07:56:31.655Z,21.6
2018-09-13T07:57:31.500Z,21.62
2018-09-13T07:58:32.200Z,21.69
2018-09-13T07:59:32.623Z,21.74
2018-09-13T08:00:33.065Z,21.72
2018-09-13T08:01:34.097Z,21.84
2018-09-13T08:02:34.520Z,21.89
2018-09-13T08:03:34.699Z,22
2018-09-13T08:04:35.198Z,21.96
2018-09-13T08:05:36.019Z,21.94
2018-09-13T08:06:36.684Z,22.08
2018-09-13T08:07:37.528Z,22.01
2018-09-13T08:08:37.186Z,22.06
2018-09-13T08:09:37.721Z,22.01
2018-09-13T08:10:37.765Z,21.97
2018-09-13T08:11:38.196Z,21.92
2018-09-13T08:12:38.670Z,21.88
2018-09-13T08:13:38.816Z,21.85
2018-09-13T08:14:39.795Z,21.91
2018-09-13T08:15:40.290Z,21.83
2018-09-13T08:16:40.560Z,21.85
2018-09-13T08:17:40.985Z,21.85
2018-09-13T08:18:41.409Z,21.85
2018-09-13T08:19:41.835Z,22.01
2018-09-13T08:20:42.579Z,22.08
2018-09-13T08:21:43.130Z,22.33
2018-09-13T08:22:42.903Z,22.41
2018-09-13T08:23:43.625Z,22.36
2018-09-13T08:24:44.050Z,22.49
2018-09-13T08:25:44.752Z,22.58
2018-09-13T08:26:44.456Z,22.67
2018-09-13T08:27:44.881Z,22.68
2018-09-13T08:28:45.308Z,22.74
2018-09-13T08:29:46.011Z,22.76
2018-09-13T08:30:46.436Z,22.86
2018-09-13T08:31:47.708Z,22.83
2018-09-13T08:32:48.130Z,22.95
2018-09-13T08:33:49.164Z,23.06
2018-09-13T08:34:49.753Z,23.14
2018-09-13T08:35:50.240Z,23.18
2018-09-13T08:36:51.024Z,23.29
2018-09-13T08:37:50.789Z,23.23
2018-09-13T08:38:51.211Z,23.25
2018-09-13T08:39:51.784Z,22.99
2018-09-13T08:40:51.896Z,22.84
2018-09-13T08:41:52.449Z,22.86
2018-09-13T08:42:52.886Z,22.8
2018-09-13T08:43:53.020Z,22.74
2018-09-13T08:44:53.447Z,22.55
2018-09-13T08:45:53.593Z,22.51
2018-09-13T08:46:54.015Z,22.58
2018-09-13T08:47:54.439Z,22.61
2018-09-13T08:48:54.861Z,22.58
2018-09-13T08:49:55.564Z,22.62
2018-09-13T08:50:56.267Z,22.67
2018-09-13T08:51:56.662Z,22.71
2018-09-13T08:52:57.358Z,22.89
2018-09-13T08:53:57.505Z,22.91
2018-09-13T08:54:58.567Z,22.95
2018-09-13T08:55:58.260Z,22.95
2018-09-13T08:56:58.404Z,22.93
2018-09-13T08:57:58.827Z,23.06
2018-09-13T08:58:58.973Z,23.08
2018-09-13T08:59:59.397Z,23.11
2018-09-13T09:01:00.376Z,22.99
2018-09-13T09:02:00.368Z,22.83
2018-09-13T09:03:00.515Z,22.73
2018-09-13T09:04:00.671Z,22.77
2018-09-13T09:05:01.087Z,23.02
2018-09-13T09:06:01.843Z,22.86
2018-09-13T09:07:02.253Z,22.76
2018-09-13T09:08:02.391Z,22.84
2018-09-13T09:09:02.821Z,22.67
2018-09-13T09:10:03.526Z,22.71
2018-09-13T09:11:03.673Z,22.73
2018-09-13T09:12:04.678Z,22.78
2018-09-13T09:13:05.096Z,22.61
2018-09-13T09:14:05.247Z,22.62
2018-09-13T09:15:05.394Z,22.68
2018-09-13T09:16:05.538Z,22.7
2018-09-13T09:17:06.243Z,22.74
2018-09-13T09:18:06.668Z,22.74
2018-09-13T09:19:06.818Z,22.81
2018-09-13T09:20:07.545Z,22.81
2018-09-13T09:21:06.968Z,22.95
2018-09-13T09:22:07.683Z,23.1
2018-09-13T09:23:08.110Z,23.2
2018-09-13T09:24:09.434Z,23.01
2018-09-13T09:25:09.001Z,22.96
2018-09-13T09:26:09.426Z,22.91
2018-09-13T09:27:09.573Z,22.93
2018-09-13T09:28:09.736Z,22.89
2018-09-13T09:29:09.898Z,22.89
2018-09-13T09:30:10.257Z,22.95
2018-09-13T09:31:10.678Z,22.99
2018-09-13T09:32:11.683Z,23.1
2018-09-13T09:33:11.836Z,23.23
2018-09-13T09:34:12.531Z,23.2
2018-09-13T09:35:12.989Z,23.21
2018-09-13T09:36:13.689Z,23.32
2018-09-13T09:37:13.844Z,23.49
2018-09-13T09:38:14.444Z,23.54
2018-09-13T09:39:15.311Z,23.62
2018-09-13T09:40:16.084Z,23.62
2018-09-13T09:41:17.158Z,23.71
2018-09-13T09:42:17.979Z,23.73
2018-09-13T09:43:17.409Z,23.77
2018-09-13T09:44:18.303Z,23.76
2018-09-13T09:45:18.761Z,23.89
2018-09-13T09:46:19.472Z,24.09
2018-09-13T09:47:19.618Z,24.14
2018-09-13T09:48:20.074Z,24.18
2018-09-13T09:49:20.778Z,24.29
2018-09-13T09:50:21.911Z,24.46
2018-09-13T09:51:21.592Z,24.28
2018-09-13T09:52:22.479Z,24.28
2018-09-13T09:53:21.681Z,24.1
2018-09-13T09:54:22.102Z,23.99
2018-09-13T09:55:22.255Z,23.95
2018-09-13T09:56:22.396Z,24.18
2018-09-13T09:57:22.549Z,24.22
2018-09-13T09:58:23.251Z,24.29
2018-09-13T09:59:23.401Z,24.4
2018-09-13T10:00:23.825Z,24.31
2018-09-13T10:01:24.573Z,24.34
2018-09-13T10:02:24.571Z,24.44
2018-09-13T10:03:24.973Z,24.55
2018-09-13T10:04:26.061Z,24.99
2018-09-13T10:05:25.795Z,25.86
2018-09-13T10:06:26.220Z,26.11
2018-09-13T10:07:26.365Z,26.3
2018-09-13T10:08:26.793Z,26.64
2018-09-13T10:09:27.937Z,26.86
2018-09-13T10:10:27.116Z,26.81
2018-09-13T10:11:29.786Z,26.96
2018-09-13T10:12:28.163Z,26.81
2018-09-13T10:13:28.318Z,26.98
2018-09-13T10:14:29.025Z,26.97
2018-09-13T10:15:29.733Z,27.57
2018-09-13T10:16:30.161Z,28
2018-09-13T10:17:30.315Z,28.41
2018-09-13T10:18:30.741Z,28.31
2018-09-13T10:19:31.556Z,27.94
2018-09-13T10:20:31.629Z,27.94
2018-09-13T10:21:32.612Z,27.86
2018-09-13T10:22:32.233Z,27.98
2018-09-13T10:23:32.767Z,27.98
2018-09-13T10:24:33.176Z,28
2018-09-13T10:25:34.038Z,27.91
2018-09-13T10:26:35.581Z,27.86
2018-09-13T10:27:34.820Z,27.75
2018-09-13T10:28:36.037Z,27.68
2018-09-13T10:29:36.568Z,27.61
2018-09-13T10:30:39.528Z,27.47
2018-09-13T10:31:37.866Z,27.22
2018-09-13T10:32:38.827Z,26.93
2018-09-13T10:33:41.925Z,26.98
2018-09-13T10:34:42.078Z,26.98
2018-09-13T10:35:42.855Z,26.92
2018-09-13T10:36:43.437Z,26.93
2018-09-13T10:37:43.663Z,26.83
2018-09-13T10:38:42.590Z,26.85
2018-09-13T10:39:45.115Z,26.83
2018-09-13T10:40:45.380Z,26.86
2018-09-13T10:41:45.686Z,26.81
2018-09-13T10:42:44.636Z,26.71
2018-09-13T10:43:44.788Z,26.76
2018-09-13T10:44:45.214Z,26.73
2018-09-13T10:45:46.488Z,26.67
2018-09-13T10:46:47.196Z,26.73
2018-09-13T10:47:56.483Z,26.73
2018-09-13T10:48:48.363Z,27
2018-09-13T10:49:49.096Z,27.41
2018-09-13T10:50:49.247Z,27.93
2018-09-13T10:51:49.953Z,28.28
2018-09-13T10:52:50.845Z,28.46
2018-09-13T10:53:52.466Z,28.82
2018-09-13T10:54:51.379Z,29.09
2018-09-13T10:55:52.477Z,29.09
2018-09-13T10:56:52.493Z,29.13
2018-09-13T10:57:53.130Z,29.4
2018-09-13T10:58:52.640Z,29.43
2018-09-13T10:59:53.076Z,29.3
2018-09-13T11:00:54.187Z,29.61
2018-09-13T11:01:54.669Z,29.68
2018-09-13T11:02:55.526Z,29.74
2018-09-13T11:03:57.303Z,29.68
2018-09-13T11:04:56.988Z,29.83
2018-09-13T11:05:59.329Z,30.13
2018-09-13T11:06:57.482Z,30.1
2018-09-13T11:07:58.207Z,29.67
2018-09-13T11:08:58.433Z,29.89
2018-09-13T11:09:59.185Z,29.69
2018-09-13T11:11:00.353Z,29.71
2018-09-13T11:11:59.889Z,29.59
2018-09-13T11:13:01.449Z,29.57
2018-09-13T11:14:02.158Z,29.69
2018-09-13T11:15:02.593Z,29.8
2018-09-13T11:16:03.583Z,29.61
2018-09-13T11:17:04.021Z,29.58
2018-09-13T11:18:04.733Z,29.44
2018-09-13T11:19:05.439Z,29.5
2018-09-13T11:20:06.053Z,29.49
2018-09-13T11:21:06.274Z,29.44
2018-09-13T11:22:06.762Z,29.76
2018-09-13T11:23:07.021Z,29.73
2018-09-13T11:24:07.671Z,29.81
2018-09-13T11:25:08.527Z,29.87
2018-09-13T11:26:08.371Z,29.92
2018-09-13T11:27:08.899Z,29.76
2018-09-13T11:28:09.497Z,29.73
2018-09-13T11:29:10.210Z,29.61
2018-09-13T11:30:10.974Z,29.24
2018-09-13T11:31:11.201Z,29.34
2018-09-13T11:32:11.915Z,29.37
2018-09-13T11:33:12.607Z,29.47
2018-09-13T11:34:12.878Z,29.59
2018-09-13T11:35:14.326Z,29.46
2018-09-13T11:36:14.910Z,29.25
2018-09-13T11:37:15.903Z,29.05
2018-09-13T11:38:16.285Z,28.97
2018-09-13T11:39:16.809Z,29.21
2018-09-13T11:40:18.147Z,29.34
2018-09-13T11:41:18.036Z,29.32
2018-09-13T11:42:18.344Z,28.8
2018-09-13T11:43:18.933Z,28.34
2018-09-13T11:44:19.473Z,28.2
2018-09-13T11:45:20.186Z,28.09
2018-09-13T11:46:20.623Z,28
2018-09-13T11:47:21.371Z,28.04
2018-09-13T11:48:22.006Z,27.86
2018-09-13T11:49:22.356Z,27.9
2018-09-13T11:50:23.109Z,27.78
2018-09-13T11:51:24.931Z,27.47
2018-09-13T11:52:24.082Z,27.63
2018-09-13T11:53:24.187Z,27.52
2018-09-13T11:54:24.732Z,27.55
2018-09-13T11:55:25.066Z,27.67
2018-09-13T11:56:26.351Z,27.88
2018-09-13T11:57:26.198Z,28.15
2018-09-13T11:58:27.361Z,28.12
2018-09-13T11:59:27.252Z,28.1
2018-09-13T12:00:27.280Z,28
2018-09-13T12:01:28.079Z,28.09
2018-09-13T12:02:29.048Z,28.08
2018-09-13T12:03:29.697Z,28.06
2018-09-13T12:04:29.852Z,28.25
2018-09-13T12:05:30.286Z,28.2
2018-09-13T12:06:30.732Z,28.12
2018-09-13T12:07:30.950Z,28.01
2018-09-13T12:08:31.705Z,28.15
2018-09-13T12:09:32.293Z,28.23
2018-09-13T12:10:32.718Z,28.43
2018-09-13T12:11:33.150Z,28.5
2018-09-13T12:12:33.591Z,28.6
2018-09-13T12:13:33.900Z,28.68
2018-09-13T12:14:34.324Z,28.49
2018-09-13T12:15:34.757Z,28.45
2018-09-13T12:16:34.906Z,28.46
2018-09-13T12:17:35.060Z,28.46
2018-09-13T12:18:35.219Z,28.47
2018-09-13T12:19:35.956Z,28.43
2018-09-13T12:20:36.387Z,28.5
2018-09-13T12:21:36.576Z,28.53
2018-09-13T12:22:37.534Z,28.43
2018-09-13T12:23:38.705Z,28.47
2018-09-13T12:24:39.951Z,28.45
2018-09-13T12:25:38.765Z,28.57
2018-09-13T12:26:39.078Z,28.55
2018-09-13T12:27:39.752Z,28.52
2018-09-13T12:28:40.259Z,28.43
2018-09-13T12:29:42.064Z,28.28
2018-09-13T12:30:43.526Z,28.35
2018-09-13T12:31:44.114Z,28.41
2018-09-13T12:32:42.978Z,28.59
2018-09-13T12:33:42.581Z,28.59
2018-09-13T12:34:43.011Z,28.46
2018-09-13T12:35:43.443Z,28.4
2018-09-13T12:36:43.592Z,28.6
2018-09-13T12:37:43.746Z,28.78
2018-09-13T12:38:44.455Z,28.74
2018-09-13T12:39:47.576Z,28.68
2018-09-13T12:40:45.036Z,28.6
2018-09-13T12:41:45.467Z,28.55
2018-09-13T12:42:45.636Z,28.46
2018-09-13T12:43:45.692Z,28.47
2018-09-13T12:44:46.174Z,28.4
2018-09-13T12:45:46.327Z,28.22
2018-09-13T12:46:47.029Z,28.06
2018-09-13T12:47:47.183Z,27.86
2018-09-13T12:48:47.334Z,27.83
2018-09-13T12:49:47.826Z,28.01
2018-09-13T12:50:48.293Z,28.12
2018-09-13T12:51:48.723Z,28.1
2018-09-13T12:52:49.435Z,28.2
2018-09-13T12:53:49.959Z,28.34
2018-09-13T12:54:50.595Z,28.38
2018-09-13T12:55:51.132Z,28.53
2018-09-13T12:56:51.821Z,28.45
2018-09-13T12:57:51.869Z,28.53
2018-09-13T12:58:52.023Z,28.52
2018-09-13T12:59:52.454Z,28.33
2018-09-13T13:00:53.160Z,28.19
2018-09-13T13:01:53.590Z,28.22
2018-09-13T13:02:53.740Z,28.22
2018-09-13T13:03:54.296Z,28.23
2018-09-13T13:04:54.723Z,28.22